Time;durP1;ratioP1;P1;durP2;ratioP2;P2;SDS_P1;SDS_P2;PMS_P1;PMS_P2;Temp;Humidity;BMP_temperature;BMP_pressure;BME280_temperature;BME280_humidity;BME280_pressure;Samples;Min_cycle;Max_cycle;Signal;HPM_P1;HPM_P2
2022/09/21 05:00:55;;;;;;;3.47;2.80;;;;;;;;;;5928031;22;20521;-79
2022/09/21 05:03:22;;;;;;;3.90;2.92;;;;;;;;;;5090450;28;20405;-79
2022/09/21 05:05:49;;;;;;;4.43;2.77;;;;;;;;;;5093820;28;20731;-79
2022/09/21 05:08:15;;;;;;;3.95;2.78;;;;;;;;;;5090715;28;20877;-79
2022/09/21 05:10:41;;;;;;;3.65;3.20;;;;;;;;;;5074690;28;20392;-79
2022/09/21 05:13:07;;;;;;;4.20;3.10;;;;;;;;;;5070302;28;20438;-79
2022/09/21 05:15:33;;;;;;;4.10;3.00;;;;;;;;;;5071745;28;20387;-79
2022/09/21 05:17:59;;;;;;;4.30;2.83;;;;;;;;;;5071427;28;20383;-79
2022/09/21 05:20:25;;;;;;;3.90;2.60;;;;;;;;;;5071137;28;20505;-79
2022/09/21 05:22:51;;;;;;;3.20;2.90;;;;;;;;;;5080528;28;20394;-81
2022/09/21 05:25:17;;;;;;;2.90;2.60;;;;;;;;;;5078873;28;20391;-81
2022/09/21 05:27:43;;;;;;;3.30;3.00;;;;;;;;;;5066746;28;20733;-81
2022/09/21 05:30:09;;;;;;;3.65;3.13;;;;;;;;;;5071449;28;20384;-80
2022/09/21 05:32:35;;;;;;;3.72;2.75;;;;;;;;;;5071266;28;20848;-80
2022/09/21 05:35:01;;;;;;;5.18;3.22;;;;;;;;;;5072073;28;20470;-80
2022/09/21 05:37:50;;;;;;;4.40;2.90;;;;;;;;;;5066641;28;20892;-80
2022/09/21 05:40:17;;;;;;;4.60;3.30;;;;;;;;;;5060731;28;20443;-80
2022/09/21 05:42:43;;;;;;;4.13;3.73;;;;;;;;;;5071181;28;20376;-80
2022/09/21 05:45:13;;;;;;;4.55;3.60;;;;;;;;;;5071766;28;20893;-80
2022/09/21 05:47:45;;;;;;;4.18;3.63;;;;;;;;;;5075059;28;20387;-80
2022/09/21 05:50:17;;;;;;;5.38;3.50;;;;;;;;;;5074746;28;20383;-80
2022/09/21 05:53:03;;;;;;;6.28;4.22;;;;;;;;;;5074691;28;20418;-80
2022/09/21 05:55:39;;;;;;;6.67;4.30;;;;;;;;;;5074401;28;20395;-80
2022/09/21 05:58:12;;;;;;;5.47;3.97;;;;;;;;;;5074247;28;20380;-80
2022/09/21 06:01:07;;;;;;;4.45;4.00;;;;;;;;;;5074515;28;20770;-80
2022/09/21 06:03:35;;;;;;;4.40;3.42;;;;;;;;;;5065671;28;20895;-80
2022/09/21 06:06:01;;;;;;;5.85;3.70;;;;;;;;;;5077815;28;20387;-80
2022/09/21 06:08:27;;;;;;;4.35;3.03;;;;;;;;;;5074553;28;20372;-80
2022/09/21 06:10:53;;;;;;;6.35;4.18;;;;;;;;;;5074214;28;20710;-80
2022/09/21 06:13:20;;;;;;;5.20;3.67;;;;;;;;;;5074075;28;20714;-80
2022/09/21 06:15:46;;;;;;;5.28;3.70;;;;;;;;;;5067983;28;20383;-80
2022/09/21 06:18:12;;;;;;;6.77;4.03;;;;;;;;;;5066975;28;20541;-81
2022/09/21 06:20:38;;;;;;;5.00;3.63;;;;;;;;;;5064268;28;20397;-80
2022/09/21 06:23:04;;;;;;;4.65;3.47;;;;;;;;;;5073803;28;20395;-81
2022/09/21 06:25:30;;;;;;;5.25;3.70;;;;;;;;;;5073096;28;20386;-81
2022/09/21 06:28:01;;;;;;;4.85;3.25;;;;;;;;;;5074184;28;20384;-82
2022/09/21 06:30:27;;;;;;;4.38;3.22;;;;;;;;;;5063730;28;20455;-81
2022/09/21 06:32:53;;;;;;;5.45;3.47;;;;;;;;;;5074053;28;20470;-81
2022/09/21 06:35:19;;;;;;;4.10;3.33;;;;;;;;;;5074177;28;20888;-81
2022/09/21 06:37:45;;;;;;;5.27;3.40;;;;;;;;;;5073881;28;20420;-81
2022/09/21 06:40:11;;;;;;;4.28;3.45;;;;;;;;;;5072612;28;20415;-81
2022/09/21 06:42:37;;;;;;;5.05;3.55;;;;;;;;;;5073780;28;20379;-81
2022/09/21 06:45:03;;;;;;;4.80;3.53;;;;;;;;;;5074156;28;20383;-81
2022/09/21 06:47:29;;;;;;;6.03;3.63;;;;;;;;;;5070540;28;20469;-80
2022/09/21 06:49:55;;;;;;;6.25;3.30;;;;;;;;;;5071609;28;20880;-82
2022/09/21 06:52:21;;;;;;;5.13;3.50;;;;;;;;;;5073497;28;20386;-82
2022/09/21 06:54:47;;;;;;;5.18;3.40;;;;;;;;;;5073419;28;20386;-82
2022/09/21 06:57:13;;;;;;;4.05;3.35;;;;;;;;;;5073116;28;20982;-82
2022/09/21 06:59:39;;;;;;;4.07;3.50;;;;;;;;;;5073580;28;20403;-82
2022/09/21 07:02:05;;;;;;;4.65;3.20;;;;;;;;;;5073402;28;20422;-81
2022/09/21 07:04:31;;;;;;;3.80;3.10;;;;;;;;;;5073849;28;20530;-82
2022/09/21 07:06:57;;;;;;;5.28;3.25;;;;;;;;;;5072326;28;20399;-82
2022/09/21 07:09:23;;;;;;;5.05;3.97;;;;;;;;;;5073639;28;20373;-82
2022/09/21 07:11:50;;;;;;;3.97;3.27;;;;;;;;;;5073493;28;20892;-82
2022/09/21 07:14:16;;;;;;;5.85;3.63;;;;;;;;;;5073314;28;20382;-82
2022/09/21 07:16:42;;;;;;;5.60;3.45;;;;;;;;;;5073360;28;20387;-82
2022/09/21 07:19:08;;;;;;;5.68;4.10;;;;;;;;;;5073400;28;20387;-82
2022/09/21 07:21:34;;;;;;;5.53;4.07;;;;;;;;;;5072986;28;20832;-82
2022/09/21 07:24:00;;;;;;;6.00;4.20;;;;;;;;;;5073521;28;20446;-83
2022/09/21 07:26:26;;;;;;;5.05;3.92;;;;;;;;;;5073423;28;20707;-82
2022/09/21 07:28:52;;;;;;;6.43;4.23;;;;;;;;;;5073086;28;20436;-82
2022/09/21 07:31:18;;;;;;;6.28;4.10;;;;;;;;;;5073051;28;20433;-82
2022/09/21 07:33:45;;;;;;;7.38;4.40;;;;;;;;;;5071031;28;20873;-82
2022/09/21 07:36:12;;;;;;;4.43;3.58;;;;;;;;;;5072736;28;20442;-81
2022/09/21 07:38:39;;;;;;;6.38;3.30;;;;;;;;;;5072961;28;20408;-82
2022/09/21 07:41:06;;;;;;;3.33;3.00;;;;;;;;;;5072922;28;20411;-82
2022/09/21 07:43:32;;;;;;;4.50;2.70;;;;;;;;;;5072853;28;20383;-82
2022/09/21 07:46:00;;;;;;;4.10;2.87;;;;;;;;;;5072885;28;20384;-82
2022/09/21 07:48:27;;;;;;;3.55;3.10;;;;;;;;;;5073004;28;20887;-81
2022/09/21 07:50:53;;;;;;;4.20;3.00;;;;;;;;;;5072630;28;20391;-83
2022/09/21 07:53:19;;;;;;;3.92;3.03;;;;;;;;;;5072724;28;20382;-82
2022/09/21 07:55:46;;;;;;;5.53;2.90;;;;;;;;;;5076980;28;20390;-81
2022/09/21 08:01:11;;;;;;;4.13;3.73;;;;;;;;;;5038672;28;20948;-81
2022/09/21 08:03:36;;;;;;;3.63;3.33;;;;;;;;;;5073100;28;20809;-81
2022/09/21 08:06:03;;;;;;;4.57;3.50;;;;;;;;;;5073135;28;20464;-82
2022/09/21 08:08:29;;;;;;;7.65;3.17;;;;;;;;;;5072268;28;20382;-82
2022/09/21 08:10:56;;;;;;;5.40;2.80;;;;;;;;;;5072686;28;20403;-82
2022/09/21 08:13:22;;;;;;;4.10;3.20;;;;;;;;;;5072653;28;20394;-81
2022/09/21 08:15:56;;;;;;;4.00;2.97;;;;;;;;;;5071793;28;20857;-82
2022/09/21 08:18:22;;;;;;;3.70;3.30;;;;;;;;;;5073064;28;20409;-82
2022/09/21 08:20:59;;;;;;;3.58;2.88;;;;;;;;;;5072237;28;20415;-81
2022/09/21 08:23:27;;;;;;;3.65;2.92;;;;;;;;;;5072568;28;20411;-81
2022/09/21 08:25:57;;;;;;;4.13;2.65;;;;;;;;;;5072749;28;20375;-82
2022/09/21 08:28:23;;;;;;;5.10;2.70;;;;;;;;;;5073067;28;20918;-82
2022/09/21 08:30:49;;;;;;;2.90;2.30;;;;;;;;;;5072806;28;20380;-81
2022/09/21 08:33:15;;;;;;;3.85;1.90;;;;;;;;;;5072959;28;20407;-81
2022/09/21 08:35:41;;;;;;;2.97;1.85;;;;;;;;;;5072842;28;20780;-82
2022/09/21 08:38:08;;;;;;;2.90;1.95;;;;;;;;;;5072760;28;20387;-82
2022/09/21 08:40:34;;;;;;;4.60;2.03;;;;;;;;;;5072964;28;20934;-82
2022/09/21 08:43:03;;;;;;;3.30;2.00;;;;;;;;;;5072630;28;20374;-82
2022/09/21 08:45:33;;;;;;;3.55;1.70;;;;;;;;;;5073135;28;20376;-82
2022/09/21 08:48:02;;;;;;;2.42;1.60;;;;;;;;;;5073269;28;20380;-82
2022/09/21 08:50:28;;;;;;;2.75;1.60;;;;;;;;;;5073003;28;20372;-82
2022/09/21 08:52:57;;;;;;;4.18;1.80;;;;;;;;;;5072773;28;20450;-82
2022/09/21 08:55:23;;;;;;;2.70;1.70;;;;;;;;;;5073007;28;20398;-82
2022/09/21 08:57:49;;;;;;;2.27;1.77;;;;;;;;;;5072444;28;20426;-82
2022/09/21 09:00:17;;;;;;;2.97;1.55;;;;;;;;;;5072676;28;20415;-82
2022/09/21 09:02:43;;;;;;;2.47;1.50;;;;;;;;;;5072418;28;20388;-82
2022/09/21 09:05:18;;;;;;;2.78;1.33;;;;;;;;;;5072620;28;20415;-82
2022/09/21 09:07:51;;;;;;;5.07;1.90;;;;;;;;;;5072650;28;20462;-82
2022/09/21 09:10:36;;;;;;;2.20;1.40;;;;;;;;;;5073104;28;20422;-82
2022/09/21 09:13:28;;;;;;;8.65;1.73;;;;;;;;;;5059120;28;20467;-82
2022/09/21 09:16:06;;;;;;;4.13;1.65;;;;;;;;;;5072719;28;20383;-82
2022/09/21 09:18:41;;;;;;;2.13;1.50;;;;;;;;;;5072904;28;20376;-82
2022/09/21 09:21:16;;;;;;;3.90;1.40;;;;;;;;;;5074374;28;20805;-81
2022/09/21 09:23:53;;;;;;;3.38;1.80;;;;;;;;;;5075042;28;20730;-83
2022/09/21 09:26:25;;;;;;;2.72;1.60;;;;;;;;;;5075927;28;20395;-82
2022/09/21 09:28:55;;;;;;;4.03;1.53;;;;;;;;;;5064325;28;20916;-82
2022/09/21 09:31:34;;;;;;;3.50;1.80;;;;;;;;;;5075968;28;20487;-83
2022/09/21 09:34:12;;;;;;;4.03;1.88;;;;;;;;;;5076001;28;20391;-82
2022/09/21 09:36:41;;;;;;;4.20;1.90;;;;;;;;;;5075943;28;20384;-82
2022/09/21 09:39:12;;;;;;;7.28;2.13;;;;;;;;;;5075983;28;20455;-81
2022/09/21 09:41:50;;;;;;;2.42;1.65;;;;;;;;;;5075956;28;20486;-82
2022/09/21 09:44:16;;;;;;;2.17;1.50;;;;;;;;;;5076521;28;20430;-83
2022/09/21 09:46:54;;;;;;;10.80;2.00;;;;;;;;;;5075862;28;20376;-82
2022/09/21 09:49:20;;;;;;;2.53;1.60;;;;;;;;;;5075646;28;20900;-82
2022/09/21 09:51:46;;;;;;;4.28;1.50;;;;;;;;;;5075454;28;20387;-81
2022/09/21 09:54:17;;;;;;;2.75;1.55;;;;;;;;;;5074653;28;20380;-82
2022/09/21 09:56:43;;;;;;;2.75;1.50;;;;;;;;;;5075219;28;20460;-82
2022/09/21 09:59:24;;;;;;;2.10;1.50;;;;;;;;;;5075046;28;20738;-82
2022/09/21 10:02:01;;;;;;;4.27;1.60;;;;;;;;;;5074771;28;20445;-82
2022/09/21 10:04:28;;;;;;;2.55;1.50;;;;;;;;;;5077880;28;20376;-82
2022/09/21 10:06:54;;;;;;;3.53;1.60;;;;;;;;;;5075109;28;20703;-82
2022/09/21 10:09:31;;;;;;;3.33;1.90;;;;;;;;;;5075066;28;20368;-82
2022/09/21 10:12:00;;;;;;;2.78;1.65;;;;;;;;;;5074343;28;20392;-82
2022/09/21 10:14:28;;;;;;;3.25;1.48;;;;;;;;;;5074024;28;20391;-82
2022/09/21 10:16:55;;;;;;;3.47;1.40;;;;;;;;;;5075021;28;20811;-82
2022/09/21 10:19:23;;;;;;;2.75;1.40;;;;;;;;;;5074779;28;20371;-82
2022/09/21 10:21:51;;;;;;;3.22;1.42;;;;;;;;;;5074311;28;20474;-82
2022/09/21 10:24:22;;;;;;;2.20;1.50;;;;;;;;;;5074780;28;20797;-82
2022/09/21 10:26:55;;;;;;;3.63;1.50;;;;;;;;;;5074561;28;20421;-82
2022/09/21 10:29:21;;;;;;;2.60;1.60;;;;;;;;;;5074217;28;20376;-82
2022/09/21 10:31:58;;;;;;;2.67;1.60;;;;;;;;;;5073380;28;20380;-82
2022/09/21 10:34:26;;;;;;;4.25;1.60;;;;;;;;;;5073960;28;20426;-83
2022/09/21 10:36:54;;;;;;;3.75;1.40;;;;;;;;;;5076951;28;20372;-83
2022/09/21 10:39:22;;;;;;;1.95;1.60;;;;;;;;;;5074249;28;20461;-83
2022/09/21 10:41:53;;;;;;;2.20;1.40;;;;;;;;;;5072623;28;20404;-82
2022/09/21 10:44:21;;;;;;;3.50;1.60;;;;;;;;;;5074164;28;20462;-83
2022/09/21 10:46:48;;;;;;;2.53;1.40;;;;;;;;;;5074050;28;20380;-82
2022/09/21 10:49:22;;;;;;;3.50;1.53;;;;;;;;;;5074020;28;20461;-83
2022/09/21 10:51:50;;;;;;;2.65;1.60;;;;;;;;;;5073341;28;20395;-83
2022/09/21 10:54:21;;;;;;;2.67;1.48;;;;;;;;;;5074061;28;20438;-83
2022/09/21 10:56:57;;;;;;;2.17;1.40;;;;;;;;;;5073872;28;20399;-83
2022/09/21 10:59:25;;;;;;;3.22;1.50;;;;;;;;;;5074097;28;20380;-83
2022/09/21 11:01:52;;;;;;;2.50;1.13;;;;;;;;;;5073268;28;20507;-83
2022/09/21 11:04:34;;;;;;;2.58;1.27;;;;;;;;;;5073877;28;20784;-82
2022/09/21 11:07:03;;;;;;;3.95;1.30;;;;;;;;;;5073697;28;20367;-83
2022/09/21 11:09:38;;;;;;;2.38;1.40;;;;;;;;;;5073569;28;20371;-84
2022/09/21 11:12:23;;;;;;;2.72;1.40;;;;;;;;;;5073636;28;20376;-83
2022/09/21 11:14:52;;;;;;;5.93;1.73;;;;;;;;;;5073757;28;20372;-83
2022/09/21 11:17:37;;;;;;;5.53;1.42;;;;;;;;;;5073568;28;20379;-83
2022/09/21 11:20:06;;;;;;;3.67;1.40;;;;;;;;;;5073014;28;20452;-83
2022/09/21 11:22:40;;;;;;;5.35;1.40;;;;;;;;;;5074177;28;20390;-83
2022/09/21 11:25:06;;;;;;;2.35;1.15;;;;;;;;;;5073660;28;20376;-84
2022/09/21 11:27:54;;;;;;;6.03;1.48;;;;;;;;;;5073677;28;20434;-83
2022/09/21 11:30:32;;;;;;;3.58;1.17;;;;;;;;;;5072478;28;20463;-84
2022/09/21 11:33:11;;;;;;;3.75;1.25;;;;;;;;;;5073491;28;20390;-84
2022/09/21 11:35:43;;;;;;;6.43;1.45;;;;;;;;;;5073447;28;20383;-84
2022/09/21 11:38:27;;;;;;;12.05;2.15;;;;;;;;;;5073320;28;20387;-83
2022/09/21 11:40:53;;;;;;;4.32;1.40;;;;;;;;;;5073406;28;20482;-84
2022/09/21 11:43:25;;;;;;;6.60;1.30;;;;;;;;;;5073062;28;20849;-84
2022/09/21 11:46:10;;;;;;;2.22;1.10;;;;;;;;;;5073262;28;20407;-84
2022/09/21 11:48:44;;;;;;;2.70;0.90;;;;;;;;;;5073066;28;20469;-84
2022/09/21 11:51:36;;;;;;;3.63;0.90;;;;;;;;;;5073052;28;20390;-84
2022/09/21 11:54:12;;;;;;;2.30;0.90;;;;;;;;;;5072934;28;20454;-84
2022/09/21 11:56:56;;;;;;;3.25;1.10;;;;;;;;;;5072883;28;20414;-85
2022/09/21 11:59:22;;;;;;;2.47;1.10;;;;;;;;;;5055290;28;20888;-85
2022/09/21 12:01:57;;;;;;;2.65;0.90;;;;;;;;;;5073239;28;20403;-83
2022/09/21 12:04:26;;;;;;;2.28;1.10;;;;;;;;;;5075430;28;20422;-84
2022/09/21 12:07:13;;;;;;;1.70;0.90;;;;;;;;;;5072151;28;20376;-84
2022/09/21 12:09:48;;;;;;;1.90;0.90;;;;;;;;;;5072871;28;20429;-84
2022/09/21 12:12:21;;;;;;;1.65;0.90;;;;;;;;;;5073046;28;20384;-84
2022/09/21 12:14:54;;;;;;;1.83;0.87;;;;;;;;;;5072374;28;21590;-83
2022/09/21 12:17:26;;;;;;;1.15;0.75;;;;;;;;;;5073351;28;20736;-84
2022/09/21 12:20:11;;;;;;;1.27;0.85;;;;;;;;;;5073228;28;20384;-83
2022/09/21 12:22:39;;;;;;;1.45;0.80;;;;;;;;;;5073006;28;20371;-83
2022/09/21 12:25:12;;;;;;;1.63;0.70;;;;;;;;;;5074864;28;20379;-83
2022/09/21 12:27:56;;;;;;;1.17;0.63;;;;;;;;;;5073221;28;20368;-83
2022/09/21 12:30:23;;;;;;;1.40;0.53;;;;;;;;;;5073104;28;20445;-83
2022/09/21 12:32:52;;;;;;;0.70;0.70;;;;;;;;;;5077527;28;20463;-83
2022/09/21 12:35:36;;;;;;;3.17;0.93;;;;;;;;;;5081252;28;20404;-83
2022/09/21 12:38:21;;;;;;;2.65;0.88;;;;;;;;;;5077045;28;20383;-83
2022/09/21 12:40:50;;;;;;;2.42;0.80;;;;;;;;;;5071572;28;20446;-84
2022/09/21 12:43:21;;;;;;;1.75;0.70;;;;;;;;;;5072843;28;20375;-84
2022/09/21 12:45:52;;;;;;;4.32;0.70;;;;;;;;;;5072968;28;20757;-84
2022/09/21 12:48:20;;;;;;;1.20;0.65;;;;;;;;;;5072693;28;20396;-84
2022/09/21 12:50:54;;;;;;;2.55;0.60;;;;;;;;;;5072691;28;20384;-84
2022/09/21 12:53:21;;;;;;;1.23;0.50;;;;;;;;;;5087025;28;20378;-83
2022/09/21 12:56:09;;;;;;;1.10;0.50;;;;;;;;;;5076054;28;20382;-84
2022/09/21 12:58:53;;;;;;;1.30;0.50;;;;;;;;;;5076791;28;20371;-84
2022/09/21 13:01:19;;;;;;;1.08;0.50;;;;;;;;;;5076755;28;20435;-84
2022/09/21 13:04:18;;;;;;;1.15;0.43;;;;;;;;;;5076319;28;20398;-84
2022/09/21 13:06:44;;;;;;;0.40;0.32;;;;;;;;;;5053674;28;20880;-84
2022/09/21 13:09:11;;;;;;;0.98;0.57;;;;;;;;;;5077039;28;20387;-84
2022/09/21 13:11:48;;;;;;;1.65;0.70;;;;;;;;;;5076514;28;20439;-84
2022/09/21 13:14:15;;;;;;;1.92;0.52;;;;;;;;;;5076730;28;20384;-84
2022/09/21 13:16:41;;;;;;;1.20;0.50;;;;;;;;;;5076356;28;20857;-83
2022/09/21 13:19:13;;;;;;;1.52;0.52;;;;;;;;;;5076201;28;20371;-84
2022/09/21 13:21:39;;;;;;;1.52;0.60;;;;;;;;;;5076296;28;20600;-84
2022/09/21 13:24:07;;;;;;;2.20;0.70;;;;;;;;;;5076357;28;20442;-84
2022/09/21 13:26:49;;;;;;;2.37;0.57;;;;;;;;;;5075879;28;20940;-84
2022/09/21 13:29:18;;;;;;;2.20;0.60;;;;;;;;;;5075418;28;20383;-84
2022/09/21 13:32:03;;;;;;;1.58;0.50;;;;;;;;;;5075384;28;20380;-84
2022/09/21 13:34:34;;;;;;;1.40;0.60;;;;;;;;;;5076279;28;20379;-84
2022/09/21 13:37:17;;;;;;;1.00;0.60;;;;;;;;;;5075857;28;20515;-84
2022/09/21 13:39:44;;;;;;;1.92;0.40;;;;;;;;;;5075240;28;20384;-83
2022/09/21 13:42:29;;;;;;;6.85;0.95;;;;;;;;;;5075492;28;20380;-84
2022/09/21 13:44:56;;;;;;;2.93;0.80;;;;;;;;;;5075144;28;20380;-84
2022/09/21 13:47:30;;;;;;;1.83;0.50;;;;;;;;;;5075189;28;20432;-84
2022/09/21 13:49:57;;;;;;;1.52;0.50;;;;;;;;;;5057379;28;20919;-83
2022/09/21 13:52:52;;;;;;;1.20;0.40;;;;;;;;;;5074928;28;20501;-84
2022/09/21 13:55:27;;;;;;;1.15;0.50;;;;;;;;;;5056260;28;20953;-84
2022/09/21 13:57:54;;;;;;;1.77;0.47;;;;;;;;;;5074968;28;20404;-83
2022/09/21 14:00:29;;;;;;;1.50;0.57;;;;;;;;;;5074965;28;20807;-83
2022/09/21 14:02:58;;;;;;;1.45;0.50;;;;;;;;;;5075171;28;20441;-84
2022/09/21 14:05:26;;;;;;;1.50;0.50;;;;;;;;;;5089876;28;20376;-84
2022/09/21 14:07:59;;;;;;;0.90;0.40;;;;;;;;;;5074908;28;20376;-84
2022/09/21 14:10:25;;;;;;;1.52;0.57;;;;;;;;;;5074606;28;20722;-83
2022/09/21 14:12:51;;;;;;;2.03;0.60;;;;;;;;;;5074693;28;20382;-83
2022/09/21 14:15:18;;;;;;;2.22;0.70;;;;;;;;;;5074851;28;20410;-84
2022/09/21 14:17:44;;;;;;;1.88;0.50;;;;;;;;;;5074869;28;20379;-84
2022/09/21 14:20:30;;;;;;;3.78;0.50;;;;;;;;;;5074714;28;20473;-83
2022/09/21 14:23:26;;;;;;;1.10;0.52;;;;;;;;;;5056488;28;20753;-84
2022/09/21 14:25:55;;;;;;;1.38;0.47;;;;;;;;;;5074450;28;20844;-84
2022/09/21 14:28:27;;;;;;;0.98;0.47;;;;;;;;;;5074585;28;20383;-84
2022/09/21 14:30:56;;;;;;;0.97;0.50;;;;;;;;;;5074307;28;20518;-84
2022/09/21 14:33:25;;;;;;;1.77;0.40;;;;;;;;;;5074368;28;20383;-83
2022/09/21 14:35:52;;;;;;;1.58;0.45;;;;;;;;;;5074502;28;20384;-84
2022/09/21 14:38:27;;;;;;;1.58;0.50;;;;;;;;;;5074207;28;20372;-83
2022/09/21 14:40:55;;;;;;;1.98;0.50;;;;;;;;;;5073971;28;20408;-83
2022/09/21 14:43:25;;;;;;;1.50;0.52;;;;;;;;;;5074161;28;20384;-83
2022/09/21 14:46:03;;;;;;;1.25;0.60;;;;;;;;;;5074121;28;20372;-84
2022/09/21 14:48:42;;;;;;;2.03;0.40;;;;;;;;;;5072648;28;20812;-84
2022/09/21 14:51:18;;;;;;;0.97;0.50;;;;;;;;;;5074026;28;20395;-84
2022/09/21 14:54:16;;;;;;;1.40;0.60;;;;;;;;;;5074077;28;20391;-83
2022/09/21 14:56:45;;;;;;;0.75;0.40;;;;;;;;;;5050124;28;20856;-82
2022/09/21 14:59:19;;;;;;;1.55;0.50;;;;;;;;;;5073795;28;20857;-83
2022/09/21 15:02:09;;;;;;;3.28;0.60;;;;;;;;;;5073339;28;20904;-82
2022/09/21 15:04:41;;;;;;;1.50;0.40;;;;;;;;;;5073851;28;20400;-82
2022/09/21 15:12:57;;;;;;;1.40;0.45;;;;;;;;;;5073571;28;20383;-82
2022/09/21 15:15:42;;;;;;;0.68;0.47;;;;;;;;;;5073792;28;20387;-82
2022/09/21 15:18:19;;;;;;;1.03;0.50;;;;;;;;;;5073157;28;20376;-83
2022/09/21 15:21:06;;;;;;;0.90;0.50;;;;;;;;;;5073277;28;20422;-82
2022/09/21 15:23:33;;;;;;;2.00;0.50;;;;;;;;;;5073230;28;20367;-82
2022/09/21 15:26:02;;;;;;;1.00;0.50;;;;;;;;;;5073251;28;20433;-85
2022/09/21 15:28:48;;;;;;;0.70;0.50;;;;;;;;;;5073315;28;20861;-82
2022/09/21 15:31:15;;;;;;;0.80;0.40;;;;;;;;;;5073131;28;20376;-82
2022/09/21 15:33:45;;;;;;;0.50;0.40;;;;;;;;;;5073176;28;20470;-82
2022/09/21 15:36:11;;;;;;;1.65;0.50;;;;;;;;;;5073143;28;20388;-82
2022/09/21 15:38:38;;;;;;;0.82;0.47;;;;;;;;;;5056403;28;20937;-82
2022/09/21 15:41:04;;;;;;;0.83;0.50;;;;;;;;;;5072947;28;20750;-82
2022/09/21 15:43:32;;;;;;;1.27;0.57;;;;;;;;;;5072859;28;20517;-82
2022/09/21 15:46:01;;;;;;;1.13;0.40;;;;;;;;;;5072807;28;20372;-82
2022/09/21 15:48:32;;;;;;;0.93;0.40;;;;;;;;;;5072781;28;20380;-82
2022/09/21 15:51:09;;;;;;;0.70;0.40;;;;;;;;;;5072435;28;20371;-82
2022/09/21 15:53:38;;;;;;;0.93;0.47;;;;;;;;;;5072724;28;20372;-83
2022/09/21 15:56:04;;;;;;;1.05;0.40;;;;;;;;;;5075283;28;20379;-82
2022/09/21 15:58:35;;;;;;;2.30;0.60;;;;;;;;;;5072588;28;20384;-82
2022/09/21 16:01:03;;;;;;;0.90;0.40;;;;;;;;;;5072713;28;20811;-82
2022/09/21 16:03:29;;;;;;;0.97;0.50;;;;;;;;;;5054905;28;20474;-82
2022/09/21 16:05:55;;;;;;;1.23;0.50;;;;;;;;;;5072802;28;20395;-82
2022/09/21 16:08:32;;;;;;;1.45;0.47;;;;;;;;;;5072517;28;20857;-82
2022/09/21 16:11:10;;;;;;;2.42;0.40;;;;;;;;;;5072373;28;20780;-82
2022/09/21 16:16:21;;;;;;;0.60;0.60;;;;;;;;;;5072485;28;20398;-82
2022/09/21 16:18:54;;;;;;;1.77;0.50;;;;;;;;;;5072327;28;20387;-82
2022/09/21 16:21:23;;;;;;;0.82;0.40;;;;;;;;;;5071947;28;20927;-82
2022/09/21 16:23:50;;;;;;;1.90;0.52;;;;;;;;;;5072351;28;20904;-82
2022/09/21 16:26:32;;;;;;;0.75;0.60;;;;;;;;;;5072346;28;20411;-82
2022/09/21 16:29:16;;;;;;;1.65;0.52;;;;;;;;;;5071859;28;20866;-82
2022/09/21 16:31:42;;;;;;;1.60;0.40;;;;;;;;;;5072174;28;20459;-82
2022/09/21 16:34:11;;;;;;;2.90;0.50;;;;;;;;;;5072423;28;20379;-83
2022/09/21 16:36:40;;;;;;;1.27;0.50;;;;;;;;;;5072234;28;20406;-82
2022/09/21 16:39:09;;;;;;;1.00;0.60;;;;;;;;;;5072224;28;20736;-82
2022/09/21 16:41:38;;;;;;;0.93;0.40;;;;;;;;;;5071240;28;20484;-82
2022/09/21 16:44:04;;;;;;;2.40;0.65;;;;;;;;;;5072315;28;20383;-82
2022/09/21 16:46:30;;;;;;;1.45;0.40;;;;;;;;;;5072128;28;20741;-82
2022/09/21 16:48:58;;;;;;;1.13;0.50;;;;;;;;;;5072748;28;20422;-82
2022/09/21 16:51:25;;;;;;;2.15;0.60;;;;;;;;;;5072271;28;20448;-82
2022/09/21 16:53:52;;;;;;;1.70;0.57;;;;;;;;;;5072024;28;20376;-82
2022/09/21 16:56:18;;;;;;;2.72;0.68;;;;;;;;;;5071915;28;20383;-82
2022/09/21 16:58:44;;;;;;;1.40;0.40;;;;;;;;;;5053865;28;20761;-82
2022/09/21 17:01:14;;;;;;;1.25;0.50;;;;;;;;;;5072479;28;20408;-84
2022/09/21 17:03:41;;;;;;;1.50;0.50;;;;;;;;;;5069691;28;20503;-85
2022/09/21 17:06:20;;;;;;;0.70;0.60;;;;;;;;;;5068178;28;20406;-84
2022/09/21 17:08:47;;;;;;;0.90;0.50;;;;;;;;;;5068263;28;20396;-82
2022/09/21 17:11:18;;;;;;;1.67;0.60;;;;;;;;;;5058128;28;20372;-83
2022/09/21 17:13:44;;;;;;;1.07;0.63;;;;;;;;;;5066978;28;20880;-83
2022/09/21 17:16:10;;;;;;;1.10;0.55;;;;;;;;;;5071630;28;20390;-83
2022/09/21 17:18:36;;;;;;;1.75;0.50;;;;;;;;;;5071767;28;20375;-83
2022/09/21 17:21:03;;;;;;;1.10;0.50;;;;;;;;;;5071703;28;20765;-83
2022/09/21 17:23:29;;;;;;;1.60;0.55;;;;;;;;;;5071828;28;20446;-83
2022/09/21 17:25:56;;;;;;;0.70;0.50;;;;;;;;;;5071811;28;20375;-84
2022/09/21 17:28:26;;;;;;;1.58;0.50;;;;;;;;;;5071817;28;20398;-83
2022/09/21 17:30:53;;;;;;;3.70;0.60;;;;;;;;;;5064489;28;20385;-83
2022/09/21 17:33:20;;;;;;;2.17;0.60;;;;;;;;;;5071565;28;20896;-83
2022/09/21 17:35:46;;;;;;;0.73;0.50;;;;;;;;;;5067357;28;20376;-83
2022/09/21 17:38:12;;;;;;;4.90;0.70;;;;;;;;;;5071778;28;20411;-84
2022/09/21 17:40:39;;;;;;;3.87;0.70;;;;;;;;;;5073814;28;20407;-84
2022/09/21 17:43:10;;;;;;;1.10;0.50;;;;;;;;;;5075072;28;20438;-83
2022/09/21 17:45:42;;;;;;;1.05;0.50;;;;;;;;;;5074799;28;20376;-83
2022/09/21 17:48:13;;;;;;;1.13;0.68;;;;;;;;;;5074251;28;20380;-82
2022/09/21 17:50:39;;;;;;;1.13;0.53;;;;;;;;;;5071291;28;20383;-84
2022/09/21 17:55:53;;;;;;;2.08;0.73;;;;;;;;;;5074378;28;20391;-83
2022/09/21 17:58:28;;;;;;;0.93;0.60;;;;;;;;;;5073967;28;20903;-84
2022/09/21 18:01:06;;;;;;;2.75;0.80;;;;;;;;;;5076795;28;20445;-84
2022/09/21 18:03:34;;;;;;;1.65;0.88;;;;;;;;;;5066777;28;20432;-83
2022/09/21 18:06:01;;;;;;;1.50;0.70;;;;;;;;;;5071421;28;20375;-84
2022/09/21 18:08:28;;;;;;;3.10;1.60;;;;;;;;;;5071434;28;20380;-85
2022/09/21 18:11:05;;;;;;;2.23;1.30;;;;;;;;;;5056440;28;20749;-85
2022/09/21 18:13:52;;;;;;;5.65;2.97;;;;;;;;;;5071060;28;20462;-86
2022/09/21 18:16:20;;;;;;;6.82;2.78;;;;;;;;;;5067824;28;20449;-85
2022/09/21 18:18:51;;;;;;;7.32;3.70;;;;;;;;;;5074655;28;20463;-86
2022/09/21 18:21:23;;;;;;;16.40;6.55;;;;;;;;;;5073934;28;20415;-85
2022/09/21 18:23:52;;;;;;;21.92;9.07;;;;;;;;;;5073345;28;20407;-86
2022/09/21 18:26:19;;;;;;;19.65;8.63;;;;;;;;;;5073526;28;20426;-85
2022/09/21 18:28:49;;;;;;;20.98;9.30;;;;;;;;;;5073019;28;20422;-85
2022/09/21 18:31:18;;;;;;;22.48;8.98;;;;;;;;;;5073628;28;20745;-85
2022/09/21 18:34:04;;;;;;;10.80;6.30;;;;;;;;;;5074036;28;20384;-84
2022/09/21 18:36:39;;;;;;;7.60;4.57;;;;;;;;;;5074129;28;20557;-85
2022/09/21 18:39:06;;;;;;;4.63;3.10;;;;;;;;;;5072805;28;20387;-84
2022/09/21 18:41:35;;;;;;;4.93;2.85;;;;;;;;;;5055231;28;20426;-85
2022/09/21 18:44:09;;;;;;;3.25;2.70;;;;;;;;;;5070233;28;20481;-84
2022/09/21 18:46:50;;;;;;;2.95;2.30;;;;;;;;;;5070131;28;20510;-84
2022/09/21 18:49:16;;;;;;;2.92;1.70;;;;;;;;;;5069835;28;20383;-85
2022/09/21 18:51:52;;;;;;;3.47;1.30;;;;;;;;;;5055881;28;20402;-85
2022/09/21 18:54:19;;;;;;;1.83;1.40;;;;;;;;;;5072491;28;20421;-85
2022/09/21 18:56:46;;;;;;;2.63;1.30;;;;;;;;;;5073750;28;20384;-84
2022/09/21 18:59:12;;;;;;;2.23;1.50;;;;;;;;;;5073841;28;20376;-84
2022/09/21 19:01:40;;;;;;;2.30;1.30;;;;;;;;;;5072430;28;20410;-85
2022/09/21 19:04:07;;;;;;;2.60;1.48;;;;;;;;;;5069685;28;20931;-85
2022/09/21 19:06:33;;;;;;;2.50;1.35;;;;;;;;;;5073776;28;20918;-86
2022/09/21 19:09:18;;;;;;;2.17;1.42;;;;;;;;;;5073688;28;20380;-85
2022/09/21 19:11:50;;;;;;;1.70;1.35;;;;;;;;;;5073433;28;20430;-85
2022/09/21 19:14:22;;;;;;;1.75;1.55;;;;;;;;;;5073555;28;20375;-85
2022/09/21 19:16:54;;;;;;;1.77;1.30;;;;;;;;;;5073689;28;20408;-84
2022/09/21 19:19:28;;;;;;;1.83;1.17;;;;;;;;;;5073479;28;20920;-84
2022/09/21 19:22:01;;;;;;;2.45;1.08;;;;;;;;;;5073260;28;20400;-85
2022/09/21 19:24:46;;;;;;;2.40;1.40;;;;;;;;;;5055140;28;20435;-85
2022/09/21 19:27:18;;;;;;;2.00;1.33;;;;;;;;;;5070145;28;20461;-85
2022/09/21 19:29:44;;;;;;;1.50;1.33;;;;;;;;;;5068796;28;20364;-85
2022/09/21 19:32:13;;;;;;;1.77;1.20;;;;;;;;;;5061932;28;20707;-85
2022/09/21 19:34:39;;;;;;;3.17;1.38;;;;;;;;;;5068393;28;20413;-85
2022/09/21 19:37:05;;;;;;;1.97;1.10;;;;;;;;;;5073096;28;20433;-85
2022/09/21 19:39:31;;;;;;;1.38;1.20;;;;;;;;;;5072883;28;20376;-86
2022/09/21 19:42:22;;;;;;;1.90;1.10;;;;;;;;;;5071004;28;20418;-85
2022/09/21 19:44:57;;;;;;;1.17;1.08;;;;;;;;;;5072294;28;20441;-85
2022/09/21 19:47:24;;;;;;;1.30;1.10;;;;;;;;;;5062212;28;20376;-84
2022/09/21 19:49:54;;;;;;;2.28;1.40;;;;;;;;;;5073035;28;20380;-85
2022/09/21 19:52:28;;;;;;;3.30;1.88;;;;;;;;;;5073223;28;20459;-84
2022/09/21 20:00:38;;;;;;;4.43;2.88;;;;;;;;;;5027731;28;20412;-85
2022/09/21 20:03:16;;;;;;;5.57;3.50;;;;;;;;;;5069538;28;20399;-85
2022/09/21 20:05:56;;;;;;;5.17;3.13;;;;;;;;;;5071375;28;20425;-84
2022/09/21 20:08:48;;;;;;;4.87;2.77;;;;;;;;;;5072452;28;20918;-85
2022/09/21 20:11:14;;;;;;;5.80;3.10;;;;;;;;;;5071904;28;20410;-85
2022/09/21 20:13:47;;;;;;;7.20;3.87;;;;;;;;;;5072490;28;20928;-85
2022/09/21 20:16:21;;;;;;;9.05;4.75;;;;;;;;;;5054406;28;20861;-85
2022/09/21 20:18:52;;;;;;;8.57;4.35;;;;;;;;;;5072651;28;20375;-85
2022/09/21 20:21:21;;;;;;;6.60;3.88;;;;;;;;;;5072588;28;20423;-85
2022/09/21 20:23:47;;;;;;;5.72;3.35;;;;;;;;;;5072184;28;20433;-84
2022/09/21 20:26:31;;;;;;;5.00;2.80;;;;;;;;;;5071979;28;20380;-85